SKCC/CUC METAR and TAF weather

Enter ICAO airport designator
Station Type Date Time Source
SKCC METAR 2022/06/30 14:00 UTC NOAA

SKCC 301400Z 18016KT 9999 SCT022 SCT090 28/19 Q1014 RMK A2994


Station Type Date Time Source
SKCC Decoded METAR 2022/06/30 14:00 UTC NOAA

Cucuta / Camilo Daza, Colombia (SKCC) 07-56N 072-31W 317M
Jun 30, 2022 - 10:00 AM EDT / 2022.06.30 1400 UTC
Wind: from the S (180 degrees) at 18 MPH (16 KT):0
Visibility: greater than 7 mile(s):0
Sky conditions: partly cloudy
Temperature: 82 F (28 C)
Dew Point: 66 F (19 C)
Relative Humidity: 58%
Pressure (altimeter): 29.94 in. Hg (1014 hPa)
ob: SKCC 301400Z 18016KT 9999 SCT022 SCT090 28/19 Q1014 RMK A2994
cycle: 14

Station Type Date Time Source
SKCC TAF 2022/06/30 12:42 UTC NOAA

TAF SKCC 301030Z 3012/0112 VRB02KT 9999 SCT020 BKN070
BECMG 3015/3017 03012KT SCT017 PROB40
TEMPO 0103/0105 TS SCT015CB TX30/3018Z TN22/0110Z

Example: see airport list